Time;durP1;ratioP1;P1;durP2;ratioP2;P2;SDS_P1;SDS_P2;PMS_P1;PMS_P2;Temp;Humidity;BMP_temperature;BMP_pressure;BME280_temperature;BME280_humidity;BME280_pressure;Samples;Min_cycle;Max_cycle;Signal;HPM_P1;HPM_P2
2021/12/08 00:00:19;;;;;;;38.20;22.97;;;3.30;99.90;;;;;;636595;226;26571;-79
2021/12/08 00:02:46;;;;;;;35.93;23.70;;;3.20;99.90;;;;;;636281;226;26793;-79
2021/12/08 00:05:13;;;;;;;37.23;24.73;;;3.20;99.90;;;;;;636572;226;26539;-79
2021/12/08 00:07:40;;;;;;;39.50;25.30;;;3.30;99.90;;;;;;636476;226;26785;-79
2021/12/08 00:10:27;;;;;;;39.47;24.63;;;3.30;99.90;;;;;;636509;226;26535;-79
2021/12/08 00:15:14;;;;;;;41.83;23.33;;;3.30;99.90;;;;;;638259;225;26813;-79
2021/12/08 00:17:42;;;;;;;41.60;24.60;;;3.20;99.90;;;;;;637707;225;26547;-79
2021/12/08 00:20:10;;;;;;;37.13;23.23;;;3.20;99.90;;;;;;637413;226;26639;-79
2021/12/08 00:22:37;;;;;;;40.70;24.63;;;3.20;99.90;;;;;;626725;226;26919;-79
2021/12/08 00:25:04;;;;;;;38.80;24.33;;;3.30;99.90;;;;;;624429;229;26598;-79
2021/12/08 00:27:32;;;;;;;38.23;22.97;;;3.30;99.90;;;;;;624391;230;27259;-79
2021/12/08 00:29:59;;;;;;;40.43;23.57;;;3.10;99.90;;;;;;634430;226;26613;-79
2021/12/08 00:32:30;;;;;;;37.43;22.60;;;2.90;99.90;;;;;;634547;226;27263;-79
2021/12/08 00:34:54;;;;;;;40.13;23.93;;;2.90;99.90;;;;;;634361;226;26825;-79
2021/12/08 00:37:23;;;;;;;39.90;23.53;;;3.10;99.90;;;;;;633896;222;26616;-81
2021/12/08 00:39:52;;;;;;;41.07;24.50;;;3.30;99.90;;;;;;623904;230;26566;-80
2021/12/08 00:42:18;;;;;;;38.33;23.00;;;3.40;99.90;;;;;;624029;230;26547;-81
2021/12/08 00:44:46;;;;;;;40.50;25.00;;;3.20;99.90;;;;;;623892;230;26562;-78
2021/12/08 00:47:13;;;;;;;37.37;23.13;;;3.20;99.90;;;;;;624131;230;26550;-77
2021/12/08 00:49:40;;;;;;;37.17;22.53;;;3.20;99.90;;;;;;624025;230;26563;-80
2021/12/08 00:52:07;;;;;;;39.30;22.43;;;3.10;99.90;;;;;;623938;230;26824;-78
2021/12/08 00:54:35;;;;;;;40.20;23.67;;;3.00;99.90;;;;;;623885;230;26607;-78
2021/12/08 00:57:02;;;;;;;37.80;23.30;;;2.90;99.90;;;;;;623883;229;26791;-78
2021/12/08 00:59:29;;;;;;;36.80;23.93;;;2.90;99.90;;;;;;623890;230;26614;-78
2021/12/08 01:02:02;;;;;;;40.90;23.67;;;2.90;99.90;;;;;;623989;229;26590;-78
2021/12/08 01:04:24;;;;;;;37.43;23.03;;;2.90;99.90;;;;;;623417;230;26830;-78
2021/12/08 01:06:51;;;;;;;39.83;22.93;;;3.00;99.90;;;;;;623866;230;26546;-78
2021/12/08 01:09:18;;;;;;;38.33;23.30;;;3.10;99.90;;;;;;623813;230;26846;-79
2021/12/08 01:11:46;;;;;;;40.13;24.27;;;3.20;99.90;;;;;;623852;230;26820;-79
2021/12/08 01:14:12;;;;;;;35.20;22.67;;;3.20;99.90;;;;;;623813;230;27285;-78
2021/12/08 01:16:40;;;;;;;37.73;22.17;;;3.30;99.90;;;;;;623876;230;26582;-78
2021/12/08 01:19:07;;;;;;;39.23;24.10;;;3.40;99.90;;;;;;623808;230;26859;-77
2021/12/08 01:21:34;;;;;;;38.13;24.00;;;3.50;99.90;;;;;;627943;227;26590;-78
2021/12/08 01:24:01;;;;;;;38.67;23.03;;;3.40;99.90;;;;;;634200;227;26555;-78
2021/12/08 01:26:29;;;;;;;37.23;23.63;;;3.00;99.90;;;;;;635906;224;26597;-78
2021/12/08 01:28:57;;;;;;;34.97;22.80;;;2.70;99.90;;;;;;629852;226;26582;-78
2021/12/08 01:31:25;;;;;;;39.63;23.57;;;2.70;99.90;;;;;;624782;230;26541;-78
2021/12/08 01:33:53;;;;;;;35.67;23.50;;;2.90;99.90;;;;;;624682;230;26593;-78
2021/12/08 01:36:20;;;;;;;39.83;22.03;;;2.90;99.90;;;;;;624454;230;26597;-78
2021/12/08 01:38:47;;;;;;;37.87;23.63;;;2.90;99.90;;;;;;624344;230;26611;-79
2021/12/08 01:41:15;;;;;;;39.73;23.53;;;2.90;99.90;;;;;;624374;230;26836;-78
2021/12/08 01:45:57;;;;;;;38.53;22.93;;;2.90;99.90;;;;;;624233;230;26553;-78
2021/12/08 01:46:10;;;;;;;43.27;24.50;;;3.00;99.90;;;;;;622260;230;26567;-79
2021/12/08 01:48:38;;;;;;;37.90;23.10;;;3.10;99.90;;;;;;624092;230;26549;-78
2021/12/08 01:51:06;;;;;;;39.97;24.07;;;3.10;99.90;;;;;;624178;230;26510;-78
2021/12/08 01:53:34;;;;;;;37.57;23.40;;;3.10;99.90;;;;;;624120;230;26555;-78
2021/12/08 01:56:01;;;;;;;37.60;23.57;;;3.10;99.90;;;;;;624212;230;26551;-78
2021/12/08 01:58:29;;;;;;;39.63;23.83;;;3.20;99.90;;;;;;624162;230;26583;-78
2021/12/08 02:00:57;;;;;;;38.67;23.20;;;3.00;99.90;;;;;;624026;230;26519;-79
2021/12/08 02:03:25;;;;;;;37.60;22.97;;;2.90;99.90;;;;;;623732;227;26767;-78
2021/12/08 02:05:52;;;;;;;36.60;22.87;;;2.90;99.90;;;;;;623735;230;26826;-79
2021/12/08 02:08:19;;;;;;;39.33;23.47;;;2.70;99.90;;;;;;623810;230;26616;-78
2021/12/08 02:10:46;;;;;;;38.23;23.17;;;2.80;99.90;;;;;;623852;230;26802;-78
2021/12/08 02:13:13;;;;;;;39.10;23.97;;;2.80;99.90;;;;;;623687;229;26765;-78
2021/12/08 02:15:41;;;;;;;40.47;23.53;;;2.80;99.90;;;;;;624375;230;26885;-78
2021/12/08 02:18:08;;;;;;;36.37;22.37;;;2.70;99.90;;;;;;624254;230;26578;-78
2021/12/08 02:20:35;;;;;;;37.73;22.97;;;2.80;99.90;;;;;;624206;230;26819;-78
2021/12/08 02:23:02;;;;;;;37.90;23.47;;;2.80;99.90;;;;;;639568;225;26517;-78
2021/12/08 02:25:29;;;;;;;36.67;22.70;;;2.80;99.90;;;;;;639570;225;26546;-78
2021/12/08 02:27:57;;;;;;;38.57;21.63;;;2.90;99.90;;;;;;638929;225;26515;-78
2021/12/08 02:30:35;;;;;;;39.17;23.43;;;2.70;99.90;;;;;;634545;226;26588;-78
2021/12/08 02:48:13;;;;;;;30.63;20.43;;;2.70;99.90;;;;;;634812;226;26581;-78
2021/12/08 02:50:41;;;;;;;28.07;18.93;;;2.80;99.90;;;;;;634893;226;26615;-78
2021/12/08 02:53:08;;;;;;;31.90;20.37;;;2.80;99.90;;;;;;634898;226;26612;-78
2021/12/08 02:55:35;;;;;;;31.43;19.83;;;2.90;99.90;;;;;;634716;226;26585;-78
2021/12/08 02:58:02;;;;;;;27.73;19.93;;;2.90;99.90;;;;;;634617;226;26829;-78
2021/12/08 03:00:29;;;;;;;35.60;21.57;;;2.80;99.90;;;;;;634592;227;26780;-78
2021/12/08 03:02:57;;;;;;;29.80;20.13;;;2.90;99.90;;;;;;634351;226;27282;-78
2021/12/08 03:05:24;;;;;;;31.47;19.60;;;2.80;99.90;;;;;;634462;226;26821;-78
2021/12/08 03:07:51;;;;;;;29.00;19.93;;;2.60;99.90;;;;;;634552;227;26853;-78
2021/12/08 03:10:18;;;;;;;32.00;20.33;;;2.60;99.90;;;;;;634566;227;26642;-78
2021/12/08 03:12:45;;;;;;;34.23;21.40;;;2.70;99.90;;;;;;634220;226;26808;-78
2021/12/08 03:15:13;;;;;;;32.87;20.63;;;2.40;99.90;;;;;;634212;227;26557;-78
2021/12/08 03:17:40;;;;;;;31.43;20.70;;;2.40;99.90;;;;;;634156;226;26798;-78
2021/12/08 03:20:09;;;;;;;35.37;21.37;;;2.40;99.90;;;;;;634187;227;26576;-78
2021/12/08 03:22:40;;;;;;;32.90;20.27;;;2.30;99.90;;;;;;625534;226;26597;-78
2021/12/08 03:25:06;;;;;;;31.43;20.87;;;2.60;99.90;;;;;;623451;230;26634;-78
2021/12/08 03:27:35;;;;;;;31.87;20.03;;;2.60;99.90;;;;;;623672;230;26619;-78
2021/12/08 03:30:12;;;;;;;31.90;21.33;;;2.40;99.90;;;;;;635343;226;26564;-78
2021/12/08 03:32:32;;;;;;;34.50;20.30;;;2.40;99.90;;;;;;635337;226;26553;-78
2021/12/08 03:34:53;;;;;;;34.70;20.20;;;2.50;99.90;;;;;;635928;226;26811;-78
2021/12/08 03:37:23;;;;;;;29.23;20.13;;;2.50;99.90;;;;;;636508;226;26808;-78
2021/12/08 03:39:50;;;;;;;30.43;20.93;;;2.40;99.90;;;;;;636243;226;26824;-78
2021/12/08 03:42:18;;;;;;;33.53;21.37;;;2.30;99.90;;;;;;636785;226;26571;-78
2021/12/08 03:44:45;;;;;;;34.87;22.30;;;2.30;99.90;;;;;;636766;226;26554;-78
2021/12/08 03:47:15;;;;;;;37.67;21.77;;;2.40;99.90;;;;;;636901;226;26763;-76
2021/12/08 03:49:40;;;;;;;36.07;22.23;;;2.40;99.90;;;;;;637890;223;26650;-76
2021/12/08 03:52:07;;;;;;;36.43;22.33;;;2.40;99.90;;;;;;637707;225;26811;-76
2021/12/08 03:54:34;;;;;;;33.13;21.70;;;2.50;99.90;;;;;;637430;226;26555;-76
2021/12/08 03:57:01;;;;;;;32.10;21.30;;;2.60;99.90;;;;;;637349;226;26868;-76
2021/12/08 03:59:29;;;;;;;30.03;19.93;;;2.60;99.90;;;;;;637099;226;26613;-76
2021/12/08 04:01:57;;;;;;;34.40;20.73;;;2.70;99.90;;;;;;637182;226;26574;-76
2021/12/08 04:04:28;;;;;;;35.77;21.47;;;2.70;99.90;;;;;;637204;226;26528;-76
2021/12/08 04:06:53;;;;;;;34.00;22.17;;;2.60;99.90;;;;;;636764;224;26578;-76
2021/12/08 04:09:32;;;;;;;34.03;21.23;;;2.60;99.90;;;;;;636729;226;26623;-76
2021/12/08 04:11:58;;;;;;;35.17;22.23;;;2.40;99.90;;;;;;636758;226;26642;-76
2021/12/08 04:14:25;;;;;;;34.90;23.03;;;2.40;99.90;;;;;;636797;226;26543;-76
2021/12/08 04:16:58;;;;;;;34.93;21.77;;;2.40;99.90;;;;;;636513;226;26527;-76
2021/12/08 04:19:25;;;;;;;33.13;21.10;;;2.60;99.90;;;;;;636344;226;26615;-76
2021/12/08 04:21:54;;;;;;;34.47;23.03;;;2.70;99.90;;;;;;630020;226;26589;-76
2021/12/08 04:24:20;;;;;;;39.67;23.47;;;2.60;99.90;;;;;;623895;230;26572;-76
2021/12/08 04:26:50;;;;;;;33.73;22.23;;;2.60;99.90;;;;;;623804;230;26834;-76
2021/12/08 04:29:15;;;;;;;38.40;23.50;;;2.40;99.90;;;;;;630103;227;26877;-76
2021/12/08 04:31:42;;;;;;;36.07;22.70;;;2.40;99.90;;;;;;633959;227;26549;-76
2021/12/08 04:34:12;;;;;;;36.20;22.00;;;2.50;99.90;;;;;;633961;226;26553;-76
2021/12/08 04:36:42;;;;;;;37.37;23.83;;;2.50;99.90;;;;;;634149;226;26594;-77
2021/12/08 04:39:08;;;;;;;36.00;23.60;;;2.40;99.90;;;;;;634269;226;26610;-76
2021/12/08 04:41:39;;;;;;;35.47;22.87;;;2.50;99.90;;;;;;634240;226;26575;-76
2021/12/08 04:44:08;;;;;;;33.87;22.33;;;2.40;99.90;;;;;;634200;226;26514;-76
2021/12/08 04:52:11;;;;;;;36.57;21.80;;;2.70;99.90;;;;;;614461;227;26574;-76
2021/12/08 05:02:27;;;;;;;34.03;21.23;;;2.80;99.90;;;;;;635966;226;26540;-76
2021/12/08 05:05:07;;;;;;;35.40;22.40;;;2.90;99.90;;;;;;634642;226;26599;-76
2021/12/08 05:09:54;;;;;;;34.30;21.90;;;2.70;99.90;;;;;;634794;226;26635;-77
2021/12/08 05:12:22;;;;;;;34.37;22.77;;;2.70;99.90;;;;;;634756;226;26600;-76
2021/12/08 05:14:49;;;;;;;35.83;22.90;;;2.70;99.90;;;;;;634818;226;26650;-76
2021/12/08 05:17:17;;;;;;;36.17;22.50;;;2.90;99.90;;;;;;634786;226;26576;-76
2021/12/08 05:19:44;;;;;;;34.97;22.93;;;3.00;99.90;;;;;;634257;226;26589;-76
2021/12/08 05:22:16;;;;;;;36.40;22.90;;;3.00;99.90;;;;;;636134;226;26557;-76
2021/12/08 05:24:43;;;;;;;35.87;21.77;;;3.00;99.90;;;;;;637154;226;26764;-76
2021/12/08 05:27:13;;;;;;;35.40;22.97;;;2.90;99.90;;;;;;637223;226;26536;-76
2021/12/08 05:29:42;;;;;;;35.93;22.20;;;2.90;99.90;;;;;;626182;226;26580;-76
2021/12/08 05:32:10;;;;;;;34.87;21.63;;;2.90;99.90;;;;;;624097;230;26576;-77
2021/12/08 05:34:38;;;;;;;34.93;22.70;;;2.80;99.90;;;;;;624208;230;26518;-76
2021/12/08 05:37:06;;;;;;;38.03;22.60;;;2.60;99.90;;;;;;623928;230;26562;-76
2021/12/08 05:39:33;;;;;;;32.83;20.60;;;2.60;99.90;;;;;;623838;230;26637;-76
2021/12/08 05:42:00;;;;;;;34.63;21.00;;;2.40;99.90;;;;;;623788;230;26601;-76
2021/12/08 05:44:27;;;;;;;36.77;21.57;;;2.30;99.90;;;;;;623622;228;26813;-76
2021/12/08 05:46:54;;;;;;;35.47;21.70;;;2.30;99.90;;;;;;623769;230;26594;-77
2021/12/08 05:49:22;;;;;;;32.80;20.47;;;2.20;99.90;;;;;;623504;230;27387;-78
2021/12/08 05:51:49;;;;;;;35.07;21.97;;;2.20;99.90;;;;;;623774;230;26609;-78
2021/12/08 05:54:16;;;;;;;34.50;21.33;;;2.00;99.90;;;;;;623812;230;26842;-74
2021/12/08 05:56:43;;;;;;;37.03;21.63;;;1.90;99.90;;;;;;623676;230;26612;-74
2021/12/08 05:59:11;;;;;;;36.97;21.93;;;2.00;99.90;;;;;;623636;227;26924;-74
2021/12/08 06:01:48;;;;;;;33.33;21.50;;;2.00;99.90;;;;;;623749;230;26836;-74
2021/12/08 06:04:15;;;;;;;37.47;22.30;;;1.80;99.90;;;;;;623735;230;26826;-75
2021/12/08 06:06:42;;;;;;;36.13;22.27;;;1.70;99.90;;;;;;623711;230;26921;-74
2021/12/08 06:09:09;;;;;;;33.00;22.77;;;1.50;99.90;;;;;;623762;230;26667;-75
2021/12/08 06:11:37;;;;;;;34.27;21.80;;;1.50;99.90;;;;;;624638;227;26842;-75
2021/12/08 06:14:05;;;;;;;36.23;21.67;;;1.50;99.90;;;;;;625274;230;26605;-75
2021/12/08 06:16:31;;;;;;;31.87;20.83;;;1.40;99.90;;;;;;624679;230;26793;-75
2021/12/08 06:18:58;;;;;;;33.73;21.70;;;1.40;99.90;;;;;;624728;230;26595;-75
2021/12/08 06:21:25;;;;;;;39.30;23.90;;;1.50;99.90;;;;;;624836;226;26792;-75
2021/12/08 06:23:53;;;;;;;35.37;22.07;;;1.70;99.90;;;;;;624829;230;26570;-75
2021/12/08 06:26:21;;;;;;;37.03;21.83;;;1.60;99.90;;;;;;624467;227;26595;-75
2021/12/08 06:28:49;;;;;;;37.97;21.87;;;1.60;99.90;;;;;;624337;230;26655;-75
2021/12/08 06:31:17;;;;;;;38.03;22.23;;;1.70;99.90;;;;;;624080;230;26550;-75
2021/12/08 06:33:44;;;;;;;36.67;22.57;;;1.70;99.90;;;;;;624093;230;26575;-75
2021/12/08 06:36:15;;;;;;;35.47;22.50;;;1.80;99.90;;;;;;624076;230;26542;-75
2021/12/08 06:38:42;;;;;;;33.70;22.20;;;1.80;99.90;;;;;;623935;230;26576;-75
2021/12/08 06:41:11;;;;;;;39.20;22.37;;;1.80;99.90;;;;;;624333;230;26837;-75
2021/12/08 06:43:38;;;;;;;35.33;20.90;;;1.70;99.90;;;;;;624027;230;26514;-75
2021/12/08 06:46:05;;;;;;;38.77;22.50;;;1.80;99.90;;;;;;624152;230;26568;-75
2021/12/08 06:48:33;;;;;;;41.50;23.57;;;1.90;99.90;;;;;;623727;230;26621;-75
2021/12/08 06:51:06;;;;;;;38.50;22.77;;;1.90;99.90;;;;;;623669;226;26605;-74
2021/12/08 06:53:34;;;;;;;37.37;22.70;;;1.90;99.90;;;;;;623668;230;26618;-75
2021/12/08 06:56:04;;;;;;;36.23;22.80;;;1.90;99.90;;;;;;623756;230;26595;-75
2021/12/08 06:58:32;;;;;;;36.17;23.00;;;1.90;99.90;;;;;;623504;230;26649;-75
2021/12/08 07:01:17;;;;;;;45.70;25.00;;;1.90;99.90;;;;;;623740;227;26616;-75
2021/12/08 07:03:34;;;;;;;37.87;23.43;;;1.90;99.90;;;;;;622204;227;26602;-75
2021/12/08 07:06:07;;;;;;;41.50;23.40;;;1.90;99.90;;;;;;623540;229;26632;-75
2021/12/08 07:08:30;;;;;;;39.50;22.87;;;2.10;99.90;;;;;;623558;230;26839;-75
2021/12/08 07:10:57;;;;;;;40.47;22.67;;;2.20;99.90;;;;;;623837;230;26680;-75
2021/12/08 07:13:25;;;;;;;38.00;22.47;;;2.30;99.90;;;;;;623784;230;26817;-74
2021/12/08 07:15:54;;;;;;;42.30;22.67;;;2.30;99.90;;;;;;623677;230;26582;-75
2021/12/08 07:18:21;;;;;;;42.47;25.03;;;2.20;99.90;;;;;;623490;230;26611;-75
2021/12/08 07:20:49;;;;;;;46.80;25.93;;;2.20;99.90;;;;;;623727;226;26601;-75
2021/12/08 07:23:24;;;;;;;38.07;22.40;;;2.20;99.90;;;;;;624618;228;26628;-74
2021/12/08 07:25:51;;;;;;;38.67;23.37;;;2.20;99.90;;;;;;625392;230;26782;-75
2021/12/08 07:28:18;;;;;;;40.80;24.10;;;2.30;99.90;;;;;;628676;226;26571;-75
2021/12/08 07:30:47;;;;;;;40.53;23.60;;;2.30;99.90;;;;;;637679;226;26841;-75
2021/12/08 07:33:14;;;;;;;44.37;25.10;;;2.20;99.90;;;;;;637337;226;26516;-75
2021/12/08 07:35:42;;;;;;;39.83;23.33;;;2.10;99.90;;;;;;637548;222;26571;-75
2021/12/08 07:38:09;;;;;;;39.07;23.87;;;2.00;99.90;;;;;;637156;226;26583;-75
2021/12/08 07:40:36;;;;;;;45.00;25.10;;;2.00;99.90;;;;;;637287;226;26618;-74
2021/12/08 07:43:03;;;;;;;46.10;26.67;;;2.00;99.90;;;;;;636820;226;26566;-75
2021/12/08 07:45:32;;;;;;;45.83;25.20;;;2.10;99.90;;;;;;636604;226;26958;-74
2021/12/08 07:47:59;;;;;;;43.60;24.57;;;2.10;99.90;;;;;;636380;226;26561;-75
2021/12/08 07:50:31;;;;;;;44.83;25.00;;;2.40;99.90;;;;;;636798;226;26607;-75
2021/12/08 07:52:58;;;;;;;43.57;25.10;;;2.40;99.90;;;;;;636450;223;26803;-74
2021/12/08 07:55:26;;;;;;;43.57;24.70;;;2.30;99.90;;;;;;636717;226;26587;-75
2021/12/08 07:57:53;;;;;;;43.47;23.70;;;2.40;99.90;;;;;;636587;226;26562;-75
2021/12/08 08:00:24;;;;;;;43.10;24.47;;;2.30;99.90;;;;;;636503;222;26566;-76
2021/12/08 08:02:51;;;;;;;48.43;24.13;;;2.30;99.90;;;;;;636124;226;26537;-75
2021/12/08 08:05:18;;;;;;;46.00;23.57;;;2.20;99.90;;;;;;636381;222;26808;-75
2021/12/08 08:07:47;;;;;;;39.07;23.67;;;2.20;99.90;;;;;;636460;226;26789;-75
2021/12/08 08:10:15;;;;;;;45.67;25.90;;;2.30;99.90;;;;;;634866;226;27292;-75
2021/12/08 08:12:41;;;;;;;44.53;25.07;;;2.40;99.90;;;;;;630556;226;26593;-75
2021/12/08 08:15:07;;;;;;;47.90;26.23;;;2.60;99.90;;;;;;623950;226;26606;-76
2021/12/08 08:17:38;;;;;;;49.03;27.20;;;2.80;99.90;;;;;;633775;226;26573;-75
2021/12/08 08:20:02;;;;;;;44.17;26.87;;;2.70;99.90;;;;;;625461;226;26894;-75
2021/12/08 08:22:29;;;;;;;51.30;26.77;;;2.80;99.90;;;;;;633718;226;26534;-75
2021/12/08 08:24:56;;;;;;;44.00;24.43;;;2.90;99.90;;;;;;627491;226;26828;-75
2021/12/08 08:27:23;;;;;;;47.87;26.80;;;2.80;99.90;;;;;;628178;226;26558;-76
2021/12/08 08:29:50;;;;;;;42.77;24.33;;;2.80;99.90;;;;;;630151;226;27001;-75
2021/12/08 08:32:22;;;;;;;43.17;23.97;;;3.00;99.90;;;;;;625960;226;26619;-75
2021/12/08 08:34:47;;;;;;;46.03;25.67;;;3.10;99.90;;;;;;628955;225;26611;-75
2021/12/08 08:37:15;;;;;;;41.83;22.67;;;3.20;99.90;;;;;;632178;225;26597;-75
2021/12/08 08:39:45;;;;;;;49.00;26.07;;;3.30;99.90;;;;;;630872;225;26614;-75
2021/12/08 08:42:15;;;;;;;47.47;26.27;;;3.20;99.90;;;;;;632518;225;26567;-75
2021/12/08 08:44:44;;;;;;;46.50;24.60;;;3.10;99.90;;;;;;630873;226;26576;-75
2021/12/08 08:47:13;;;;;;;41.40;24.47;;;3.10;99.90;;;;;;632872;225;26831;-76
2021/12/08 08:49:40;;;;;;;48.10;25.20;;;3.20;99.90;;;;;;630396;225;26578;-75
2021/12/08 08:52:08;;;;;;;49.17;25.80;;;3.30;99.90;;;;;;633277;225;26615;-76
2021/12/08 08:54:35;;;;;;;39.57;23.60;;;3.20;99.90;;;;;;631955;226;26932;-76
2021/12/08 08:57:05;;;;;;;44.67;23.13;;;3.00;99.90;;;;;;630653;226;26612;-75
2021/12/08 08:59:32;;;;;;;43.90;23.80;;;3.00;99.90;;;;;;631641;226;26845;-73
2021/12/08 09:02:02;;;;;;;44.20;24.77;;;3.10;99.90;;;;;;630031;226;26626;-75
2021/12/08 09:04:27;;;;;;;43.23;24.00;;;3.10;99.90;;;;;;629837;226;27255;-76
2021/12/08 09:06:56;;;;;;;44.73;24.37;;;3.10;99.90;;;;;;631241;224;26594;-75
2021/12/08 09:09:21;;;;;;;41.17;22.73;;;3.10;99.90;;;;;;629694;226;26616;-75
2021/12/08 09:11:50;;;;;;;42.40;24.57;;;3.20;99.90;;;;;;631255;226;26812;-76
2021/12/08 09:14:20;;;;;;;45.77;22.83;;;3.20;99.90;;;;;;632794;226;26813;-79
2021/12/08 09:16:48;;;;;;;41.50;22.83;;;3.20;99.90;;;;;;635307;226;26836;-78
2021/12/08 09:19:15;;;;;;;40.37;23.80;;;3.20;99.90;;;;;;635707;226;26563;-78
2021/12/08 09:21:47;;;;;;;44.20;24.80;;;3.30;99.90;;;;;;632147;226;26606;-77
2021/12/08 09:24:14;;;;;;;42.93;23.63;;;3.20;99.90;;;;;;631207;226;26595;-78
2021/12/08 09:26:42;;;;;;;43.00;23.17;;;3.40;99.90;;;;;;626222;226;26599;-78
2021/12/08 09:29:11;;;;;;;41.10;22.93;;;3.50;99.90;;;;;;623536;230;26630;-79
2021/12/08 09:31:39;;;;;;;43.63;22.63;;;3.50;99.90;;;;;;623488;230;26635;-78
2021/12/08 09:34:07;;;;;;;39.03;21.53;;;3.80;99.90;;;;;;623729;230;26574;-78
2021/12/08 09:36:38;;;;;;;44.77;25.07;;;3.80;99.90;;;;;;631163;226;26548;-78
2021/12/08 09:39:05;;;;;;;38.30;22.57;;;3.80;99.90;;;;;;627107;226;26612;-78
2021/12/08 09:41:37;;;;;;;41.30;23.47;;;3.70;99.90;;;;;;633555;226;26585;-79
2021/12/08 09:44:05;;;;;;;36.97;22.20;;;3.70;99.90;;;;;;627432;226;26598;-77
2021/12/08 09:46:34;;;;;;;45.17;23.33;;;3.80;99.90;;;;;;635806;224;26611;-76
2021/12/08 09:49:01;;;;;;;49.53;25.90;;;3.60;99.90;;;;;;637753;225;26557;-76
2021/12/08 09:51:29;;;;;;;42.50;24.30;;;3.70;99.90;;;;;;637553;225;26590;-76
2021/12/08 09:53:58;;;;;;;45.23;25.67;;;3.80;99.90;;;;;;634375;226;26590;-77
2021/12/08 09:56:24;;;;;;;44.60;24.37;;;3.80;99.90;;;;;;634976;226;26631;-76
2021/12/08 09:58:53;;;;;;;40.63;23.33;;;3.80;99.90;;;;;;624528;230;26578;-78
2021/12/08 10:01:21;;;;;;;43.87;24.50;;;3.80;99.90;;;;;;624512;230;26865;-78
2021/12/08 10:03:46;;;;;;;41.33;24.07;;;3.90;99.90;;;;;;624462;226;26605;-78
2021/12/08 10:06:13;;;;;;;43.97;25.27;;;3.80;99.90;;;;;;635160;226;26851;-79
2021/12/08 10:08:41;;;;;;;42.27;23.13;;;3.90;99.90;;;;;;634129;226;26584;-79
2021/12/08 10:11:08;;;;;;;39.90;23.50;;;4.00;99.90;;;;;;624561;226;26551;-79
2021/12/08 10:13:35;;;;;;;46.33;25.57;;;4.00;99.90;;;;;;624030;227;26804;-77
2021/12/08 10:16:03;;;;;;;43.87;25.13;;;4.10;99.90;;;;;;630189;226;26780;-76
2021/12/08 10:18:31;;;;;;;44.77;25.10;;;4.40;99.90;;;;;;627207;226;26579;-77
2021/12/08 10:20:58;;;;;;;44.53;24.17;;;4.30;99.90;;;;;;629663;227;26505;-77
2021/12/08 10:23:30;;;;;;;44.47;24.63;;;4.50;99.90;;;;;;631046;226;26606;-77
2021/12/08 10:25:57;;;;;;;42.33;23.80;;;4.60;99.90;;;;;;628635;226;26649;-77
2021/12/08 10:28:30;;;;;;;44.80;25.63;;;4.60;99.90;;;;;;630481;226;26603;-77
2021/12/08 10:30:58;;;;;;;49.07;26.10;;;4.60;99.90;;;;;;632691;226;26555;-77
2021/12/08 10:33:37;;;;;;;44.50;25.27;;;4.50;99.90;;;;;;631900;226;26552;-77
2021/12/08 10:36:03;;;;;;;42.17;25.60;;;4.30;99.90;;;;;;630838;226;26573;-77
2021/12/08 10:38:27;;;;;;;44.83;25.63;;;4.20;99.90;;;;;;631125;226;26633;-77
2021/12/08 10:40:58;;;;;;;41.23;23.37;;;4.40;99.90;;;;;;628507;226;26564;-78
2021/12/08 10:43:25;;;;;;;39.97;24.10;;;4.50;99.90;;;;;;634909;226;26546;-80
2021/12/08 10:46:09;;;;;;;42.73;25.13;;;4.60;99.90;;;;;;629097;226;26840;-77
2021/12/08 10:48:41;;;;;;;39.47;23.93;;;4.60;99.90;;;;;;633527;226;26648;-77
2021/12/08 10:56:10;;;;;;;43.43;25.80;;;4.80;99.90;;;;;;628405;226;26614;-75
2021/12/08 10:58:39;;;;;;;42.70;24.70;;;4.90;99.90;;;;;;630404;225;26843;-76
2021/12/08 11:01:11;;;;;;;40.20;23.73;;;4.80;99.90;;;;;;631870;225;26537;-75
2021/12/08 11:03:39;;;;;;;41.00;23.87;;;5.10;99.90;;;;;;632651;226;26579;-74
2021/12/08 11:06:06;;;;;;;41.40;24.07;;;5.10;99.90;;;;;;626934;226;26557;-76
2021/12/08 11:08:35;;;;;;;42.50;22.87;;;5.10;99.90;;;;;;626141;226;26582;-77
2021/12/08 11:11:20;;;;;;;42.80;25.33;;;5.10;99.90;;;;;;624505;230;26594;-77
2021/12/08 11:13:45;;;;;;;38.00;24.00;;;5.10;99.90;;;;;;624369;227;26632;-76
2021/12/08 11:16:14;;;;;;;43.07;24.63;;;4.90;99.90;;;;;;635843;226;26805;-77
2021/12/08 11:18:41;;;;;;;44.03;24.43;;;4.90;99.90;;;;;;636505;226;26611;-78
2021/12/08 11:21:16;;;;;;;44.50;24.87;;;4.70;99.90;;;;;;636735;226;26603;-81
2021/12/08 11:23:41;;;;;;;43.40;25.67;;;4.50;99.90;;;;;;636375;226;26639;-80
2021/12/08 11:26:13;;;;;;;48.50;25.57;;;4.70;99.90;;;;;;636700;226;26874;-79
2021/12/08 11:28:41;;;;;;;45.33;24.60;;;5.20;99.90;;;;;;636436;226;26568;-79
2021/12/08 11:31:10;;;;;;;42.70;26.13;;;5.40;99.90;;;;;;636734;226;26630;-79
2021/12/08 11:33:41;;;;;;;42.53;25.30;;;5.40;99.90;;;;;;636553;226;26547;-79
2021/12/08 11:36:06;;;;;;;43.43;24.10;;;5.40;99.90;;;;;;636026;226;26873;-79
2021/12/08 11:38:33;;;;;;;43.23;25.73;;;5.50;99.90;;;;;;636351;226;26571;-80
2021/12/08 11:41:01;;;;;;;39.90;23.93;;;4.70;99.90;;;;;;636399;226;26552;-81
2021/12/08 11:43:30;;;;;;;47.53;25.43;;;4.70;99.90;;;;;;636007;226;26551;-80
2021/12/08 11:46:08;;;;;;;47.37;26.40;;;4.80;99.90;;;;;;632561;226;26623;-80
2021/12/08 11:48:39;;;;;;;42.07;24.63;;;4.70;99.90;;;;;;626225;226;26571;-79
2021/12/08 11:51:10;;;;;;;44.10;24.57;;;4.80;99.90;;;;;;622893;230;26613;-79
2021/12/08 11:53:37;;;;;;;43.20;24.97;;;4.70;99.90;;;;;;623576;227;26605;-79
2021/12/08 11:56:04;;;;;;;45.87;25.97;;;4.70;99.90;;;;;;634887;226;26795;-78
2021/12/08 11:58:32;;;;;;;42.33;24.40;;;4.70;99.90;;;;;;636384;226;26800;-79
2021/12/08 12:01:02;;;;;;;42.43;24.13;;;4.80;99.90;;;;;;636436;226;26531;-79
2021/12/08 12:03:28;;;;;;;41.60;24.10;;;4.70;99.90;;;;;;636258;226;26539;-79
2021/12/08 12:05:56;;;;;;;41.13;23.70;;;4.90;99.90;;;;;;636471;226;26535;-79
2021/12/08 12:08:23;;;;;;;42.13;22.27;;;4.90;99.90;;;;;;634350;226;26586;-79
2021/12/08 12:10:51;;;;;;;39.03;23.40;;;4.90;99.90;;;;;;626824;225;26909;-79
2021/12/08 12:13:18;;;;;;;44.13;24.70;;;5.00;99.90;;;;;;628014;224;26569;-79
2021/12/08 12:15:47;;;;;;;43.20;23.17;;;5.10;99.90;;;;;;634032;226;26871;-79
2021/12/08 12:18:12;;;;;;;38.47;22.80;;;5.30;99.90;;;;;;637078;226;26604;-80
2021/12/08 12:20:39;;;;;;;41.07;23.97;;;5.40;99.90;;;;;;633534;226;26815;-79
2021/12/08 12:23:29;;;;;;;39.07;23.33;;;5.50;99.90;;;;;;624424;226;26566;-77
2021/12/08 12:26:06;;;;;;;41.33;22.70;;;5.60;99.90;;;;;;614293;230;26644;-77
2021/12/08 12:28:42;;;;;;;42.53;22.30;;;5.70;99.90;;;;;;625862;227;26584;-78
2021/12/08 12:31:21;;;;;;;37.53;22.47;;;5.70;99.90;;;;;;633849;226;26593;-77
2021/12/08 12:33:49;;;;;;;39.23;23.50;;;5.80;99.90;;;;;;634232;226;26595;-78
2021/12/08 12:36:17;;;;;;;43.90;25.23;;;5.80;99.90;;;;;;635778;226;26760;-78
2021/12/08 12:38:44;;;;;;;41.40;23.77;;;6.00;99.90;;;;;;628378;226;26837;-78
2021/12/08 12:41:14;;;;;;;38.30;22.10;;;5.90;99.90;;;;;;637204;226;26563;-78
2021/12/08 12:43:39;;;;;;;42.97;23.23;;;5.90;99.90;;;;;;634890;226;26787;-78
2021/12/08 12:46:07;;;;;;;37.57;23.27;;;5.90;99.90;;;;;;629953;226;26526;-78
2021/12/08 12:48:37;;;;;;;35.83;21.70;;;5.90;99.90;;;;;;626563;227;26606;-77
2021/12/08 12:51:03;;;;;;;37.97;22.00;;;5.70;99.90;;;;;;634384;226;26828;-78
2021/12/08 12:53:30;;;;;;;37.27;22.33;;;5.60;99.90;;;;;;627955;227;26598;-77
2021/12/08 12:55:58;;;;;;;39.63;22.53;;;5.50;99.90;;;;;;623778;230;26649;-77
2021/12/08 12:58:25;;;;;;;41.60;24.67;;;5.50;99.90;;;;;;636302;226;26544;-78
2021/12/08 13:01:09;;;;;;;39.57;22.83;;;5.30;99.90;;;;;;634557;226;26552;-79
2021/12/08 13:03:50;;;;;;;32.70;21.23;;;4.70;99.90;;;;;;635198;226;26608;-78
2021/12/08 13:06:23;;;;;;;37.93;21.93;;;4.70;99.90;;;;;;635500;226;26559;-80
2021/12/08 13:08:51;;;;;;;39.67;22.47;;;4.70;99.90;;;;;;634421;226;26854;-81
2021/12/08 13:11:51;;;;;;;41.47;23.27;;;4.50;99.90;;;;;;635614;226;26594;-78
2021/12/08 13:14:25;;;;;;;35.73;21.80;;;4.50;99.90;;;;;;632715;227;26572;-78
2021/12/08 13:17:15;;;;;;;41.60;22.63;;;4.50;99.90;;;;;;634243;227;26765;-78
2021/12/08 13:19:43;;;;;;;44.80;24.87;;;4.50;99.90;;;;;;633061;226;26870;-78